createdAt,value
2023-05-18T00:00:57.035Z,23.41
2023-05-18T00:03:02.436Z,23.43
2023-05-18T00:05:07.920Z,23.43
2023-05-18T00:07:13.455Z,23.41
2023-05-18T00:09:18.802Z,23.41
2023-05-18T00:11:24.349Z,23.38
2023-05-18T00:13:29.782Z,23.37
2023-05-18T00:15:35.156Z,23.36
2023-05-18T00:17:40.561Z,23.36
2023-05-18T00:19:45.893Z,23.36
2023-05-18T00:21:51.329Z,23.36
2023-05-18T00:23:56.776Z,23.35
2023-05-18T00:26:02.008Z,23.35
2023-05-18T00:28:07.343Z,23.34
2023-05-18T00:30:12.525Z,23.35
2023-05-18T00:32:17.872Z,23.35
2023-05-18T00:34:23.173Z,23.35
2023-05-18T00:36:28.598Z,23.33
2023-05-18T00:38:33.944Z,23.33
2023-05-18T00:40:39.168Z,23.35
2023-05-18T00:42:44.410Z,23.33
2023-05-18T00:44:49.645Z,23.33
2023-05-18T00:46:54.885Z,23.33
2023-05-18T00:49:00.062Z,23.31
2023-05-18T00:51:05.354Z,23.29
2023-05-18T00:53:10.743Z,23.26
2023-05-18T00:55:16.135Z,23.27
2023-05-18T00:58:10.921Z,23.24
2023-05-18T01:00:16.261Z,23.23
2023-05-18T01:02:21.724Z,23.23
2023-05-18T01:04:27.243Z,23.23
2023-05-18T01:06:32.583Z,23.19
2023-05-18T01:08:38.022Z,23.18
2023-05-18T01:10:43.478Z,23.16
2023-05-18T01:12:48.801Z,23.15
2023-05-18T01:14:54.256Z,23.17
2023-05-18T01:17:00.133Z,23.16
2023-05-18T01:19:05.673Z,23.13
2023-05-18T01:21:11.074Z,23.09
2023-05-18T01:23:16.408Z,23.08
2023-05-18T01:25:21.651Z,23.06
2023-05-18T01:27:26.887Z,23.05
2023-05-18T01:29:32.326Z,23.01
2023-05-18T01:31:37.698Z,23.02
2023-05-18T01:33:43.100Z,23.01
2023-05-18T01:35:48.939Z,22.98
2023-05-18T01:37:54.493Z,22.99
2023-05-18T01:39:59.830Z,22.98
2023-05-18T01:42:05.287Z,22.98
2023-05-18T01:44:10.607Z,22.96
2023-05-18T01:46:16.386Z,22.92
2023-05-18T01:48:21.801Z,22.94
2023-05-18T01:50:27.138Z,22.93
2023-05-18T01:52:32.575Z,22.87
2023-05-18T01:54:37.911Z,22.86
2023-05-18T01:56:43.377Z,22.85
2023-05-18T01:58:48.583Z,22.83
2023-05-18T02:00:53.832Z,22.8
2023-05-18T02:02:59.199Z,22.83
2023-05-18T02:05:04.910Z,22.81
2023-05-18T02:07:10.251Z,22.76
2023-05-18T02:09:15.588Z,22.8
2023-05-18T02:11:21.038Z,22.79
2023-05-18T02:13:26.496Z,22.78
2023-05-18T02:15:31.977Z,22.79
2023-05-18T02:17:37.464Z,22.76
2023-05-18T02:19:42.886Z,22.76
2023-05-18T02:21:48.325Z,22.74
2023-05-18T02:23:53.867Z,22.74
2023-05-18T02:25:59.171Z,22.73
2023-05-18T02:28:04.549Z,22.7
2023-05-18T02:30:09.884Z,22.71
2023-05-18T02:32:19.011Z,22.69
2023-05-18T02:34:24.239Z,22.67
2023-05-18T02:36:29.684Z,22.65
2023-05-18T02:38:34.938Z,22.61
2023-05-18T02:40:40.317Z,22.61
2023-05-18T02:42:45.692Z,22.62
2023-05-18T02:44:51.044Z,22.6
2023-05-18T02:46:56.274Z,22.59
2023-05-18T02:49:01.599Z,22.59
2023-05-18T02:51:06.957Z,22.54
2023-05-18T02:53:12.387Z,22.53
2023-05-18T02:55:17.723Z,22.53
2023-05-18T02:57:23.259Z,22.51
2023-05-18T02:59:28.701Z,22.51
2023-05-18T03:01:33.974Z,22.48
2023-05-18T03:03:39.410Z,22.48
2023-05-18T03:05:45.033Z,22.47
2023-05-18T03:07:50.468Z,22.48
2023-05-18T03:09:55.703Z,22.47
2023-05-18T03:12:01.040Z,22.48
2023-05-18T03:14:06.494Z,22.47
2023-05-18T03:16:11.875Z,22.44
2023-05-18T03:18:17.112Z,22.45
2023-05-18T03:20:22.393Z,22.45
2023-05-18T03:22:27.625Z,22.44
2023-05-18T03:24:32.865Z,22.42
2023-05-18T03:26:38.199Z,22.42
2023-05-18T03:28:43.392Z,22.41
2023-05-18T03:30:48.774Z,22.41
2023-05-18T03:32:54.261Z,22.4
2023-05-18T03:34:59.757Z,22.36
2023-05-18T03:37:04.941Z,22.36
2023-05-18T03:39:10.328Z,22.35
2023-05-18T03:41:15.568Z,22.33
2023-05-18T03:43:21.004Z,22.33
2023-05-18T03:45:26.375Z,22.33
2023-05-18T03:47:33.335Z,22.34
2023-05-18T03:49:38.864Z,22.34
2023-05-18T03:51:44.103Z,22.32
2023-05-18T03:53:49.434Z,22.31
2023-05-18T03:55:54.677Z,22.29
2023-05-18T03:57:59.909Z,22.28
2023-05-18T04:00:05.246Z,22.25
2023-05-18T04:02:10.718Z,22.25
2023-05-18T04:04:16.158Z,22.23
2023-05-18T04:06:21.873Z,22.25
2023-05-18T04:08:27.210Z,22.24
2023-05-18T04:10:32.561Z,22.25
2023-05-18T04:12:37.778Z,22.27
2023-05-18T04:14:43.344Z,22.26
2023-05-18T04:16:48.934Z,22.25
2023-05-18T04:18:54.590Z,22.24
2023-05-18T04:21:00.170Z,22.22
2023-05-18T04:23:06.929Z,22.22
2023-05-18T04:25:12.175Z,22.22
2023-05-18T04:27:17.502Z,22.21
2023-05-18T04:29:22.947Z,22.21
2023-05-18T04:31:28.307Z,22.21
2023-05-18T04:33:33.736Z,22.23
2023-05-18T04:35:39.171Z,22.25
2023-05-18T04:37:45.038Z,22.23
2023-05-18T04:39:50.357Z,22.23
2023-05-18T04:41:55.799Z,22.23
2023-05-18T04:44:01.125Z,22.21
2023-05-18T04:46:06.598Z,22.21
2023-05-18T04:48:12.159Z,22.21
2023-05-18T04:50:17.658Z,22.19
2023-05-18T04:52:22.990Z,22.2
2023-05-18T04:54:28.227Z,22.19
2023-05-18T04:56:33.926Z,22.18
2023-05-18T04:58:39.412Z,22.18
2023-05-18T05:00:44.654Z,22.19
2023-05-18T05:02:49.983Z,22.2
2023-05-18T05:04:55.729Z,22.22
2023-05-18T05:07:00.982Z,22.28
2023-05-18T05:09:06.318Z,22.36
2023-05-18T05:11:11.853Z,22.42
2023-05-18T05:13:17.183Z,22.48
2023-05-18T05:15:22.728Z,22.56
2023-05-18T05:17:28.286Z,22.65
2023-05-18T05:19:33.988Z,22.73
2023-05-18T05:21:39.557Z,22.78
2023-05-18T05:23:44.896Z,22.84
2023-05-18T05:25:50.335Z,22.9
2023-05-18T05:27:55.912Z,22.94
2023-05-18T05:30:01.418Z,22.99
2023-05-18T05:32:06.927Z,23.04
2023-05-18T05:34:12.229Z,23.07
2023-05-18T05:36:17.735Z,23.09
2023-05-18T05:38:22.991Z,23.09
2023-05-18T05:40:28.524Z,23.12
2023-05-18T05:42:33.921Z,23.18
2023-05-18T05:44:39.194Z,23.25
2023-05-18T05:46:45.378Z,23.32
2023-05-18T05:48:51.002Z,23.35
2023-05-18T05:50:56.436Z,23.39
2023-05-18T05:53:01.801Z,23.43
2023-05-18T05:55:07.122Z,23.47
2023-05-18T05:57:12.346Z,23.52
2023-05-18T05:59:17.845Z,23.54
2023-05-18T06:01:23.346Z,23.49
2023-05-18T06:03:28.650Z,23.5
2023-05-18T06:05:36.370Z,23.51
2023-05-18T06:07:41.661Z,23.52
2023-05-18T06:09:47.038Z,23.54
2023-05-18T06:11:52.377Z,23.54
2023-05-18T06:13:57.614Z,23.56
2023-05-18T06:16:02.999Z,23.55
2023-05-18T06:18:08.360Z,23.55
2023-05-18T06:20:16.714Z,23.58
2023-05-18T06:22:22.036Z,23.56
2023-05-18T06:24:27.477Z,23.55
2023-05-18T06:26:32.711Z,23.58
2023-05-18T06:28:38.046Z,23.6
2023-05-18T06:30:43.380Z,23.61
2023-05-18T06:32:48.625Z,23.66
2023-05-18T06:34:54.166Z,23.7
2023-05-18T06:36:59.505Z,23.72
2023-05-18T06:39:04.843Z,23.75
2023-05-18T06:41:10.178Z,23.78
2023-05-18T06:43:15.606Z,23.82
2023-05-18T06:45:20.740Z,23.85
2023-05-18T06:47:25.915Z,23.9
2023-05-18T06:49:31.121Z,23.92
2023-05-18T06:51:36.303Z,23.96
2023-05-18T06:53:41.671Z,23.99
2023-05-18T06:55:46.795Z,24.01
2023-05-18T06:57:51.960Z,24.03
2023-05-18T06:59:57.401Z,24.03
2023-05-18T07:02:02.761Z,24.04
2023-05-18T07:04:08.475Z,24.01
2023-05-18T07:06:14.130Z,23.99
2023-05-18T07:08:19.451Z,23.95
2023-05-18T07:10:25.008Z,23.97
2023-05-18T07:12:30.350Z,23.96
2023-05-18T07:14:35.789Z,23.97
2023-05-18T07:16:41.034Z,23.97
2023-05-18T07:18:46.273Z,23.95
2023-05-18T07:20:51.619Z,23.94
2023-05-18T07:22:56.929Z,23.94
2023-05-18T07:25:02.377Z,23.93
2023-05-18T07:27:07.816Z,23.94
2023-05-18T07:29:13.051Z,23.93
2023-05-18T07:31:19.126Z,23.94
2023-05-18T07:33:24.699Z,23.94
2023-05-18T07:35:30.131Z,23.93
2023-05-18T07:37:36.260Z,23.93
2023-05-18T07:39:41.787Z,23.93
2023-05-18T07:41:47.250Z,23.94
2023-05-18T07:43:52.663Z,23.93
2023-05-18T07:45:58.100Z,23.92
2023-05-18T07:48:03.401Z,23.91
2023-05-18T07:50:08.821Z,23.93
2023-05-18T07:52:14.015Z,23.93
2023-05-18T07:54:19.308Z,23.94
2023-05-18T07:56:24.592Z,23.93
2023-05-18T07:58:29.922Z,23.96
2023-05-18T08:00:35.282Z,23.94
2023-05-18T08:02:40.941Z,23.95
2023-05-18T08:04:46.958Z,23.93
2023-05-18T08:06:52.413Z,23.94
2023-05-18T08:08:57.840Z,23.94
2023-05-18T08:11:03.379Z,23.96
2023-05-18T08:13:08.721Z,23.97
2023-05-18T08:15:13.952Z,23.97
2023-05-18T08:17:19.291Z,23.95
2023-05-18T08:19:24.534Z,23.95
2023-05-18T08:21:29.869Z,23.95
2023-05-18T08:23:35.305Z,23.97
2023-05-18T08:25:40.958Z,23.97
2023-05-18T08:27:46.569Z,23.96
2023-05-18T08:29:51.928Z,23.98
2023-05-18T08:31:57.186Z,24
2023-05-18T08:34:02.828Z,24.01
2023-05-18T08:36:08.148Z,24.01
2023-05-18T08:38:13.379Z,24.02
2023-05-18T08:40:18.615Z,24.02
2023-05-18T08:42:27.526Z,24.01
2023-05-18T08:44:53.573Z,23.98
2023-05-18T08:46:58.903Z,23.74
2023-05-18T08:49:04.438Z,23.38
2023-05-18T08:51:09.888Z,23.08
2023-05-18T08:53:15.118Z,22.85
2023-05-18T08:55:20.468Z,22.65
2023-05-18T08:57:25.792Z,22.5
2023-05-18T08:59:31.148Z,22.34
2023-05-18T09:01:36.485Z,22.19
2023-05-18T09:03:42.110Z,22.11
2023-05-18T09:05:47.652Z,22.09
2023-05-18T09:07:52.889Z,22.12
2023-05-18T09:09:58.095Z,22.15
2023-05-18T09:12:03.364Z,22.21
2023-05-18T09:14:09.008Z,22.17
2023-05-18T09:16:14.550Z,22.15
2023-05-18T09:18:22.043Z,22.18
2023-05-18T09:20:32.400Z,22.19
2023-05-18T09:22:37.629Z,22.19
2023-05-18T09:24:43.265Z,22.22
2023-05-18T09:26:48.710Z,22.24
2023-05-18T09:28:53.957Z,22.27
2023-05-18T09:30:59.194Z,22.27
2023-05-18T09:33:04.580Z,22.31
2023-05-18T09:35:10.270Z,22.34
2023-05-18T09:37:15.661Z,22.38
2023-05-18T09:39:21.046Z,22.44
2023-05-18T09:41:26.379Z,22.45
2023-05-18T09:43:31.614Z,22.48
2023-05-18T09:45:36.973Z,22.5
2023-05-18T09:47:42.436Z,22.52
2023-05-18T09:49:47.838Z,22.52
2023-05-18T09:51:53.071Z,22.53
2023-05-18T09:53:58.617Z,22.55
2023-05-18T09:56:03.843Z,22.56
2023-05-18T09:58:09.082Z,22.54
2023-05-18T10:00:14.321Z,22.57
2023-05-18T10:02:19.553Z,22.6
2023-05-18T10:04:24.913Z,22.63
2023-05-18T10:06:30.229Z,22.66
2023-05-18T10:08:35.670Z,22.66
2023-05-18T10:10:41.108Z,22.67
2023-05-18T10:12:46.552Z,22.68
2023-05-18T10:14:51.892Z,22.68
2023-05-18T10:17:03.660Z,22.68
2023-05-18T10:19:20.858Z,22.7
2023-05-18T10:21:26.636Z,22.71
2023-05-18T10:23:31.980Z,22.73
2023-05-18T10:25:37.441Z,22.75
2023-05-18T10:27:42.759Z,22.76
2023-05-18T10:29:48.198Z,22.74
2023-05-18T10:31:54.656Z,22.73
2023-05-18T10:33:59.891Z,22.73
2023-05-18T10:36:05.148Z,22.75
2023-05-18T10:38:10.476Z,22.74
2023-05-18T10:40:15.701Z,22.72
2023-05-18T10:42:21.140Z,22.72
2023-05-18T10:44:26.379Z,22.72
2023-05-18T10:46:31.791Z,22.71
2023-05-18T10:48:37.709Z,22.7
2023-05-18T10:50:43.417Z,22.68
2023-05-18T10:52:48.852Z,22.69
2023-05-18T10:54:54.088Z,22.7
2023-05-18T10:56:59.424Z,22.7
2023-05-18T10:59:04.765Z,22.69
2023-05-18T11:01:10.145Z,22.69
2023-05-18T11:03:15.721Z,22.71
2023-05-18T11:05:21.147Z,22.71
2023-05-18T11:07:26.726Z,22.71
2023-05-18T11:09:31.959Z,22.7
2023-05-18T11:11:37.296Z,22.7
2023-05-18T11:13:42.534Z,22.71
2023-05-18T11:15:47.822Z,22.7
2023-05-18T11:17:53.333Z,22.71
2023-05-18T11:19:58.859Z,22.71
2023-05-18T11:22:04.130Z,22.71
2023-05-18T11:24:09.435Z,22.72
2023-05-18T11:26:14.662Z,22.73
2023-05-18T11:28:20.013Z,22.73
2023-05-18T11:30:25.550Z,22.75
2023-05-18T11:32:31.461Z,22.76
2023-05-18T11:34:39.282Z,22.78
2023-05-18T11:36:45.050Z,22.79
2023-05-18T11:38:50.318Z,22.79
2023-05-18T11:40:55.813Z,22.83
2023-05-18T11:43:01.047Z,22.84
2023-05-18T11:45:06.398Z,22.86
2023-05-18T11:47:11.744Z,22.9
2023-05-18T11:49:16.993Z,22.91
2023-05-18T11:51:22.396Z,22.9
2023-05-18T11:53:27.739Z,22.93
2023-05-18T11:55:33.081Z,22.94
2023-05-18T11:57:38.520Z,22.99
2023-05-18T11:59:43.965Z,23.05
2023-05-18T12:01:49.414Z,23.09
2023-05-18T12:03:54.803Z,23.09
2023-05-18T12:06:00.274Z,23.13
2023-05-18T12:08:05.524Z,23.15
2023-05-18T12:10:11.063Z,23.11
2023-05-18T12:12:16.702Z,23.06
2023-05-18T12:14:22.054Z,22.99
2023-05-18T12:16:27.514Z,22.94
2023-05-18T12:18:32.925Z,22.9
2023-05-18T12:20:38.262Z,22.92
2023-05-18T12:22:43.595Z,22.94
2023-05-18T12:24:49.040Z,22.91
2023-05-18T12:26:54.479Z,22.95
2023-05-18T12:28:59.716Z,22.95
2023-05-18T12:31:05.447Z,22.98
2023-05-18T12:33:11.073Z,23.04
2023-05-18T12:35:16.543Z,23.06
2023-05-18T12:37:23.914Z,23.07
2023-05-18T12:39:47.291Z,23.1
2023-05-18T12:41:52.599Z,23.1
2023-05-18T12:43:57.970Z,23.11
2023-05-18T12:46:03.306Z,23.16
2023-05-18T12:48:08.664Z,23.15
2023-05-18T12:50:14.205Z,23.16
2023-05-18T12:52:19.522Z,23.12
2023-05-18T12:54:25.020Z,23.11
2023-05-18T12:56:30.418Z,23.12
2023-05-18T12:58:35.644Z,23.13
2023-05-18T13:00:40.886Z,23.14
2023-05-18T13:02:46.471Z,23.16
2023-05-18T13:04:52.124Z,23.15
2023-05-18T13:06:57.505Z,23.16
2023-05-18T13:09:02.846Z,23.23
2023-05-18T13:11:14.034Z,23.27
2023-05-18T13:13:20.097Z,23.28
2023-05-18T13:15:25.520Z,23.33
2023-05-18T13:17:30.811Z,23.34
2023-05-18T13:19:36.625Z,23.38
2023-05-18T13:21:41.962Z,23.38
2023-05-18T13:23:47.380Z,23.33
2023-05-18T13:25:52.738Z,23.35
2023-05-18T13:28:01.966Z,23.37
2023-05-18T13:30:07.199Z,23.37
2023-05-18T13:32:12.670Z,23.36
2023-05-18T13:34:17.967Z,23.33
2023-05-18T13:36:23.402Z,23.35
2023-05-18T13:38:28.643Z,23.4
2023-05-18T13:40:34.604Z,23.44
2023-05-18T13:42:39.932Z,23.47
2023-05-18T13:44:45.174Z,23.46
2023-05-18T13:46:50.437Z,23.44
2023-05-18T13:48:55.773Z,23.45
2023-05-18T13:51:01.102Z,23.45
2023-05-18T13:53:06.665Z,23.47
2023-05-18T13:55:12.561Z,23.53
2023-05-18T13:57:17.916Z,23.61
2023-05-18T13:59:23.189Z,23.64
2023-05-18T14:01:28.514Z,23.63
2023-05-18T14:03:34.135Z,23.6
2023-05-18T14:05:39.878Z,23.57
2023-05-18T14:07:45.322Z,23.51
2023-05-18T14:09:50.715Z,23.48
2023-05-18T14:11:56.103Z,23.45
2023-05-18T14:14:01.542Z,23.43
2023-05-18T14:16:06.999Z,23.41
2023-05-18T14:18:12.586Z,23.4
2023-05-18T14:20:17.979Z,23.44
2023-05-18T14:22:23.526Z,23.47
2023-05-18T14:24:29.246Z,23.52
2023-05-18T14:26:34.998Z,23.6
2023-05-18T14:28:40.338Z,23.67
2023-05-18T14:30:45.807Z,23.71
2023-05-18T14:32:51.247Z,23.74
2023-05-18T14:34:56.847Z,23.79
2023-05-18T14:37:02.305Z,23.81
2023-05-18T14:39:07.658Z,23.83
2023-05-18T14:41:13.082Z,23.87
2023-05-18T14:43:18.329Z,23.91
2023-05-18T14:45:23.751Z,23.91
2023-05-18T14:47:29.133Z,23.94
2023-05-18T14:49:34.537Z,23.94
2023-05-18T14:51:39.980Z,23.95
2023-05-18T14:53:45.420Z,23.96
2023-05-18T14:55:50.757Z,23.98
2023-05-18T14:57:56.202Z,23.99
2023-05-18T15:00:01.646Z,24.01
2023-05-18T15:02:07.285Z,24.02
2023-05-18T15:04:12.781Z,24.03
2023-05-18T15:06:18.268Z,24.04
2023-05-18T15:08:23.716Z,24.06
2023-05-18T15:10:29.176Z,24.06
2023-05-18T15:12:35.295Z,24.08
2023-05-18T15:14:40.740Z,24.08
2023-05-18T15:16:46.396Z,24.1
2023-05-18T15:18:51.981Z,24.13
2023-05-18T15:20:57.472Z,24.15
2023-05-18T15:23:02.837Z,24.15
2023-05-18T15:25:08.154Z,24.17
2023-05-18T15:27:13.500Z,24.18
2023-05-18T15:29:18.923Z,24.17
2023-05-18T15:31:25.503Z,24.19
2023-05-18T15:33:30.927Z,24.17
2023-05-18T15:35:36.368Z,24.22
2023-05-18T15:37:41.909Z,24.25
2023-05-18T15:39:47.247Z,24.29
2023-05-18T15:41:52.589Z,24.3
2023-05-18T15:43:57.822Z,24.33
2023-05-18T15:46:03.478Z,24.29
2023-05-18T15:48:09.227Z,24.28
2023-05-18T15:50:14.785Z,24.21
2023-05-18T15:52:20.008Z,24.09
2023-05-18T15:54:25.433Z,23.98
2023-05-18T15:56:30.872Z,23.91
2023-05-18T15:58:36.415Z,23.82
2023-05-18T16:00:41.656Z,23.73
2023-05-18T16:02:47.040Z,23.67
2023-05-18T16:04:52.322Z,23.62
2023-05-18T16:06:57.480Z,23.61
2023-05-18T16:09:02.751Z,23.56
2023-05-18T16:11:07.866Z,23.55
2023-05-18T16:13:13.084Z,23.51
2023-05-18T16:15:18.402Z,23.46
2023-05-18T16:17:23.768Z,23.42
2023-05-18T16:19:29.641Z,23.38
2023-05-18T16:21:34.829Z,23.35
2023-05-18T16:23:40.174Z,23.34
2023-05-18T16:25:46.631Z,23.27
2023-05-18T16:27:51.842Z,23.24
2023-05-18T16:29:57.054Z,23.19
2023-05-18T16:32:02.293Z,23.21
2023-05-18T16:34:07.601Z,23.22
2023-05-18T16:36:12.954Z,23.26
2023-05-18T16:38:18.286Z,23.25
2023-05-18T16:40:23.704Z,23.26
2023-05-18T16:42:29.166Z,23.24
2023-05-18T16:44:34.558Z,23.22
2023-05-18T16:46:39.978Z,23.18
2023-05-18T16:48:45.489Z,23.12
2023-05-18T16:50:50.677Z,23.11
2023-05-18T16:52:56.051Z,23.07
2023-05-18T16:55:01.636Z,23
2023-05-18T16:57:07.039Z,22.95
2023-05-18T16:59:12.583Z,22.92
2023-05-18T17:01:27.081Z,22.86
2023-05-18T17:03:33.795Z,22.87
2023-05-18T17:05:39.347Z,22.84
2023-05-18T17:07:44.778Z,22.82
2023-05-18T17:09:50.081Z,22.77
2023-05-18T17:11:55.467Z,22.74
2023-05-18T17:14:01.113Z,22.78
2023-05-18T17:16:06.720Z,22.88
2023-05-18T17:18:12.124Z,22.97
2023-05-18T17:20:17.554Z,23.05
2023-05-18T17:22:23.069Z,23.13
2023-05-18T17:24:28.408Z,23.17
2023-05-18T17:26:33.841Z,23.24
2023-05-18T17:28:39.179Z,23.28
2023-05-18T17:30:44.746Z,23.31
2023-05-18T17:32:50.236Z,23.39
2023-05-18T17:34:55.717Z,23.44
2023-05-18T17:37:01.361Z,23.52
2023-05-18T17:39:06.795Z,23.58
2023-05-18T17:41:12.341Z,23.64
2023-05-18T17:43:17.785Z,23.68
2023-05-18T17:45:23.225Z,23.72
2023-05-18T17:47:28.536Z,23.74
2023-05-18T17:49:33.998Z,23.78
2023-05-18T17:51:39.234Z,23.79
2023-05-18T17:53:44.666Z,23.8
2023-05-18T17:55:50.105Z,23.83
2023-05-18T17:57:55.410Z,23.86
2023-05-18T18:00:00.722Z,23.85
2023-05-18T18:02:06.021Z,23.87
2023-05-18T18:04:11.221Z,23.88
2023-05-18T18:06:16.696Z,23.91
2023-05-18T18:08:22.082Z,23.92
2023-05-18T18:10:27.478Z,23.93
2023-05-18T18:12:33.327Z,23.92
2023-05-18T18:14:38.691Z,23.88
2023-05-18T18:16:44.401Z,23.88
2023-05-18T18:18:49.772Z,23.89
2023-05-18T18:20:55.296Z,23.89
2023-05-18T18:23:00.834Z,23.9
2023-05-18T18:25:07.229Z,23.92
2023-05-18T18:27:12.744Z,23.92
2023-05-18T18:29:18.067Z,23.95
2023-05-18T18:31:23.445Z,23.98
2023-05-18T18:33:28.955Z,24.01
2023-05-18T18:35:34.228Z,24.03
2023-05-18T18:37:39.538Z,24.06
2023-05-18T18:39:44.873Z,24.07
2023-05-18T18:41:50.204Z,24.07
2023-05-18T18:43:55.447Z,24.08
2023-05-18T18:46:00.912Z,24.1
2023-05-18T18:48:06.485Z,24.08
2023-05-18T18:50:11.968Z,24.1
2023-05-18T18:52:17.323Z,24.13
2023-05-18T18:54:22.722Z,24.16
2023-05-18T18:56:28.192Z,24.16
2023-05-18T18:58:33.640Z,24.19
2023-05-18T19:00:38.968Z,24.21
2023-05-18T19:02:44.231Z,24.26
2023-05-18T19:04:49.661Z,24.28
2023-05-18T19:06:55.125Z,24.29
2023-05-18T19:09:00.520Z,24.31
2023-05-18T19:11:05.957Z,24.36
2023-05-18T19:13:11.401Z,24.4
2023-05-18T19:15:16.633Z,24.39
2023-05-18T19:17:21.892Z,24.4
2023-05-18T19:19:27.382Z,24.4
2023-05-18T19:21:32.960Z,24.35
2023-05-18T19:23:38.809Z,24.34
2023-05-18T19:25:44.200Z,24.34
2023-05-18T19:27:49.587Z,24.35
2023-05-18T19:29:54.825Z,24.38
2023-05-18T19:32:00.096Z,24.38
2023-05-18T19:34:05.712Z,24.37
2023-05-18T19:36:11.152Z,24.39
2023-05-18T19:38:16.583Z,24.41
2023-05-18T19:40:21.933Z,24.43
2023-05-18T19:42:27.263Z,24.43
2023-05-18T19:44:32.558Z,24.43
2023-05-18T19:46:38.002Z,24.45
2023-05-18T19:48:43.269Z,24.42
2023-05-18T19:50:48.614Z,24.41
2023-05-18T19:52:53.953Z,24.4
2023-05-18T19:54:59.387Z,24.38
2023-05-18T19:57:05.655Z,24.31
2023-05-18T19:59:11.086Z,24.3
2023-05-18T20:01:16.475Z,24.3
2023-05-18T20:03:22.002Z,24.27
2023-05-18T20:05:27.612Z,24.26
2023-05-18T20:07:32.948Z,24.29
2023-05-18T20:09:38.395Z,24.27
2023-05-18T20:11:43.828Z,24.26
2023-05-18T20:13:49.284Z,24.23
2023-05-18T20:15:54.733Z,24.25
2023-05-18T20:18:00.019Z,24.29
2023-05-18T20:20:08.050Z,24.28
2023-05-18T20:22:13.492Z,24.27
2023-05-18T20:24:19.024Z,24.27
2023-05-18T20:26:24.477Z,24.27
2023-05-18T20:28:30.110Z,24.29
2023-05-18T20:30:35.568Z,24.31
2023-05-18T20:32:40.911Z,24.32
2023-05-18T20:34:46.340Z,24.32
2023-05-18T20:36:51.681Z,24.31
2023-05-18T20:38:57.005Z,24.31
2023-05-18T20:41:02.250Z,24.31
2023-05-18T20:43:07.590Z,24.31
2023-05-18T20:45:13.043Z,24.3
2023-05-18T20:47:18.722Z,24.3
2023-05-18T20:49:24.216Z,24.31
2023-05-18T20:51:29.447Z,24.3
2023-05-18T20:53:34.834Z,24.31
2023-05-18T20:55:40.325Z,24.32
2023-05-18T20:57:45.665Z,24.3
2023-05-18T20:59:50.895Z,24.3
2023-05-18T21:01:56.310Z,24.3
2023-05-18T21:04:02.120Z,24.3
2023-05-18T21:06:07.635Z,24.31
2023-05-18T21:08:13.073Z,24.34
2023-05-18T21:10:18.610Z,24.35
2023-05-18T21:12:24.031Z,24.35
2023-05-18T21:14:29.389Z,24.35
2023-05-18T21:16:34.901Z,24.33
2023-05-18T21:18:40.685Z,24.34
2023-05-18T21:20:46.141Z,24.35
2023-05-18T21:22:51.472Z,24.35
2023-05-18T21:24:56.794Z,24.36
2023-05-18T21:27:02.243Z,24.36
2023-05-18T21:29:07.481Z,24.37
2023-05-18T21:31:12.963Z,24.36
2023-05-18T21:33:18.656Z,24.38
2023-05-18T21:35:24.105Z,24.39
2023-05-18T21:37:29.444Z,24.4
2023-05-18T21:39:34.780Z,24.41
2023-05-18T21:41:40.258Z,24.4
2023-05-18T21:43:45.660Z,24.39
2023-05-18T21:45:51.183Z,24.38
2023-05-18T21:47:56.575Z,24.36
2023-05-18T21:50:02.096Z,24.33
2023-05-18T21:52:07.647Z,24.34
2023-05-18T21:54:12.861Z,24.31
2023-05-18T21:56:18.201Z,24.32
2023-05-18T21:58:23.447Z,24.29
2023-05-18T22:00:28.835Z,24.3
2023-05-18T22:02:34.760Z,24.29
2023-05-18T22:04:40.187Z,24.28
2023-05-18T22:06:45.714Z,24.29
2023-05-18T22:08:51.179Z,24.28
2023-05-18T22:10:56.498Z,24.26
2023-05-18T22:13:01.834Z,24.27
2023-05-18T22:15:07.111Z,24.26
2023-05-18T22:17:12.530Z,24.26
2023-05-18T22:19:18.084Z,24.24
2023-05-18T22:21:23.829Z,24.24
2023-05-18T22:23:29.131Z,24.21
2023-05-18T22:25:34.407Z,24.22
2023-05-18T22:27:40.029Z,24.19
2023-05-18T22:29:45.349Z,24.18
2023-05-18T22:31:50.714Z,24.17
2023-05-18T22:33:56.245Z,24.17
2023-05-18T22:36:01.649Z,24.16
2023-05-18T22:38:07.107Z,24.13
2023-05-18T22:40:12.351Z,24.14
2023-05-18T22:42:17.785Z,24.13
2023-05-18T22:44:23.431Z,24.13
2023-05-18T22:46:29.428Z,24.13
2023-05-18T22:48:35.548Z,24.11
2023-05-18T22:50:41.352Z,24.09
2023-05-18T22:52:47.242Z,24.1
2023-05-18T22:54:52.982Z,24.08
2023-05-18T22:57:00.036Z,24.08
2023-05-18T22:59:05.394Z,24.07
2023-05-18T23:01:11.762Z,24.06
2023-05-18T23:03:18.368Z,24.07
2023-05-18T23:05:24.010Z,24.06
2023-05-18T23:07:31.608Z,24.07
2023-05-18T23:09:37.206Z,24.06
2023-05-18T23:11:42.873Z,24.05
2023-05-18T23:13:50.793Z,24.05
2023-05-18T23:15:56.512Z,24.05
2023-05-18T23:18:03.853Z,24.06
2023-05-18T23:20:09.430Z,24.05
2023-05-18T23:22:15.828Z,24.04
2023-05-18T23:24:21.456Z,24.03
2023-05-18T23:26:27.086Z,24.05
2023-05-18T23:28:33.037Z,24.04
2023-05-18T23:30:38.878Z,24.04
2023-05-18T23:32:44.370Z,24.03
2023-05-18T23:34:50.123Z,24.02
2023-05-18T23:36:55.922Z,24.03
2023-05-18T23:39:02.227Z,24.03
2023-05-18T23:41:08.464Z,24.02
2023-05-18T23:43:14.083Z,24.03
2023-05-18T23:45:19.755Z,24.01
2023-05-18T23:47:25.430Z,24
2023-05-18T23:49:32.179Z,24
2023-05-18T23:51:39.237Z,24
2023-05-18T23:53:44.774Z,24.02
2023-05-18T23:55:50.416Z,24.02
2023-05-18T23:57:55.956Z,24.03
